Storlien, Sweden

2:33 AM CEST on July 28, 2016 (GMT +0200)
Roros | | Change Station

Elev 2054 ft 62.58 °N, 11.34 °E | Updated 13 minutes ago

Scattered Clouds
Scattered Clouds
54 °F
Feels Like 54 °F
N
9
Wind Variable Wind from SSE

Today
High -- | Low -- °F
--% Chance of Precip.
Yesterday
High -- | Low -- °F
Precip. -- in
Pressure 29.77 in
Visibility 6.2 miles
Clouds Scattered Clouds 3500 ft
Dew Point 46 °F
Humidity 77%
Rainfall 0.00 in
Snow Depth Not available.
4:15 AM 10:18 PM
Last Quarter, 38% visible
METAR ENRO 280020Z AUTO 15008KT 9999NDV SCT035/// 12/08 Q1008
Pressure 29.77 in
Visibility 6.2 miles
Clouds Scattered Clouds 3500 ft
Dew Point 46 °F
Humidity 77%
Rainfall 0.00 in
Snow Depth Not available.
4:15 AM 10:18 PM
Last Quarter, 38% visible
METAR ENRO 280020Z AUTO 15008KT 9999NDV SCT035/// 12/08 Q1008

10-Day Weather Forecast

×

Almanac

Astronomy

Jul. 28, 2016 Rise Set
Actual Time
Civil Twilight
Nautical Twilight
Astronomical Twilight
Moon
Length of Visible Light
Length of Day
Tomorrow will be .
, % of the Moon is Illuminated

Today's Extremes

Country Highs Country Lows

Community

WunderPhotos

Upload Photos

1,927,978 photos uploaded!

WunderBlog® & News

Nearby

Air Quality

  Air Quality AQ Index Pollutant
Not available.

Snow Depth

Station Depth Elevation

Earthquake Activity

City Distance Mag. Time & Date
Minimum magnitude displayed is 2.5.

Coastal Water Temperatures

Place Temperature

Stations

Nearby Weather Stations

Station Location Temp. Windchill Dew Point Humidity Wind Precip. Elev Updated Type